Terminal Aerodrome Forecast
Issued by NWS

Home | Current Version | Previous Version | Text Only | Print | Product List | Glossary On
Versions: 1 2 3 4 5 6 7 8 9 10 11 12 13 14 15 16
000
FTUS45 KCYS 262320
TAFLAR
TAF
KLAR 262320Z 2700/2724 32008KT P6SM SKC
     FM270100 15013KT P6SM SKC
     FM270500 17015KT P6SM SKC
     FM271500 25020G30KT P6SM SCT120
     FM271900 28025G35KT P6SM VCTS BKN120CB=

USA.gov is the U.S. government's official web portal to all federal, state and local government web resources and services.